Avoca, Iowa
Current Conditions -  °F | °C
As of 6:15 PM on Saturday 25 Oct 2014 (Local Time) from KHNR Reporting Station
Clear Clear  
Wind Chill: 66°   Ceiling: Unl
Heat Index: 66°   Visibility: 10mi
Dew Point: 37°   Wind: 5mph
Humidity: 35%   Direction: 60°ENE
Pressure: 30.09"   Gusts: NA
Location:  41.48°N, 95.34°W
Report Text: KHNR 252315Z AUTO 06004KT 10SM CLR 19/03 A3009 RMK AO2
Loading
Personal Weather Stations






























Interactive Weather Map New forecast layout! Learn more

10-Day Weather Forecast

Advertisements
Track Severe Weather on mobile